createdAt,value
2023-04-08T00:00:32.525Z,80.49
2023-04-08T00:03:04.694Z,80.37
2023-04-08T00:05:37.212Z,80.30
2023-04-08T00:08:08.091Z,80.39
2023-04-08T00:10:38.609Z,80.23
2023-04-08T00:13:08.684Z,80.18
2023-04-08T00:15:39.260Z,79.99
2023-04-08T00:18:09.986Z,80.19
2023-04-08T00:20:44.948Z,80.04
2023-04-08T00:23:15.962Z,80.24
2023-04-08T00:25:46.954Z,80.33
2023-04-08T00:28:18.190Z,80.54
2023-04-08T00:30:49.562Z,80.88
2023-04-08T00:33:22.940Z,81.04
2023-04-08T00:35:53.798Z,81.52
2023-04-08T00:38:27.485Z,81.51
2023-04-08T00:41:02.452Z,81.76
2023-04-08T00:43:33.772Z,81.73
2023-04-08T00:46:04.337Z,81.89
2023-04-08T00:48:34.611Z,82.20
2023-04-08T00:53:58.026Z,82.23
2023-04-08T00:56:33.598Z,82.18
2023-04-08T00:59:08.489Z,82.17
2023-04-08T01:01:45.414Z,82.12
2023-04-08T01:07:47.125Z,82.09
2023-04-08T01:10:24.875Z,82.13
2023-04-08T01:13:01.438Z,82.16
2023-04-08T01:15:39.471Z,82.00
2023-04-08T01:18:17.186Z,82.20
2023-04-08T01:20:48.712Z,81.80
2023-04-08T01:23:25.637Z,81.52
2023-04-08T01:25:58.994Z,81.60
2023-04-08T01:28:33.568Z,81.63
2023-04-08T01:31:05.900Z,81.60
2023-04-08T01:33:38.670Z,81.31
2023-04-08T01:36:13.429Z,81.15
2023-04-08T01:38:45.117Z,81.32
2023-04-08T01:41:19.923Z,81.43
2023-04-08T01:43:52.958Z,81.49
2023-04-08T01:46:25.510Z,81.45
2023-04-08T01:49:08.395Z,81.45
2023-04-08T01:51:39.494Z,81.25
2023-04-08T01:54:11.545Z,81.35
2023-04-08T01:56:47.508Z,81.09
2023-04-08T01:59:19.964Z,81.00
2023-04-08T02:01:52.299Z,80.91
2023-04-08T02:04:29.818Z,80.94
2023-04-08T02:07:01.941Z,81.01
2023-04-08T02:09:33.375Z,81.08
2023-04-08T02:14:35.830Z,81.17
2023-04-08T02:17:45.238Z,81.12
2023-04-08T02:20:22.005Z,81.33
2023-04-08T02:23:17.275Z,81.52
2023-04-08T02:25:49.034Z,81.53
2023-04-08T02:28:23.338Z,81.61
2023-04-08T02:31:12.332Z,81.80
2023-04-08T02:37:36.691Z,81.64
2023-04-08T02:40:25.049Z,81.71
2023-04-08T02:43:02.033Z,81.83
2023-04-08T02:45:43.532Z,81.86
2023-04-08T02:48:14.076Z,81.81
2023-04-08T02:50:44.454Z,81.85
2023-04-08T02:53:15.070Z,81.76
2023-04-08T02:55:46.227Z,81.88
2023-04-08T02:58:16.948Z,81.98
2023-04-08T03:00:49.619Z,81.77
2023-04-08T03:06:17.530Z,81.82
2023-04-08T03:08:52.839Z,81.76
2023-04-08T03:11:25.428Z,81.69
2023-04-08T03:13:57.787Z,81.54
2023-04-08T03:16:32.309Z,81.59
2023-04-08T03:19:07.489Z,81.40
2023-04-08T03:21:37.734Z,81.39
2023-04-08T03:24:08.507Z,81.23
2023-04-08T03:26:38.928Z,81.05
2023-04-08T03:29:10.546Z,80.94
2023-04-08T03:31:44.019Z,80.88
2023-04-08T03:34:14.236Z,81.06
2023-04-08T03:36:45.022Z,80.88
2023-04-08T03:39:16.239Z,81.08
2023-04-08T03:41:50.003Z,81.04
2023-04-08T03:44:21.327Z,81.09
2023-04-08T03:46:52.183Z,81.26
2023-04-08T03:49:44.400Z,81.42
2023-04-08T03:52:15.542Z,81.77
2023-04-08T03:54:45.854Z,82.05
2023-04-08T03:57:19.411Z,82.16
2023-04-08T03:59:50.800Z,81.97
2023-04-08T04:02:21.791Z,82.21
2023-04-08T04:04:53.588Z,82.15
2023-04-08T04:07:24.218Z,82.20
2023-04-08T04:10:00.580Z,82.20
2023-04-08T04:12:30.813Z,82.46
2023-04-08T04:15:03.108Z,82.70
2023-04-08T04:17:59.647Z,82.80
2023-04-08T04:20:36.964Z,82.51
2023-04-08T04:23:07.593Z,82.76
2023-04-08T04:25:43.952Z,82.69
2023-04-08T04:28:14.385Z,82.98
2023-04-08T04:30:49.207Z,83.01
2023-04-08T04:33:23.282Z,82.80
2023-04-08T04:35:54.431Z,82.87
2023-04-08T04:38:29.393Z,82.96
2023-04-08T04:41:04.039Z,83.21
2023-04-08T04:43:35.248Z,83.06
2023-04-08T04:46:15.644Z,83.12
2023-04-08T04:48:46.003Z,83.30
2023-04-08T04:51:17.813Z,83.50
2023-04-08T04:53:48.876Z,83.46
2023-04-08T04:56:28.243Z,83.56
2023-04-08T04:59:00.735Z,83.58
2023-04-08T05:01:35.818Z,83.71
2023-04-08T05:04:07.198Z,83.66
2023-04-08T05:06:38.868Z,83.56
2023-04-08T05:09:10.037Z,83.70
2023-04-08T05:11:41.309Z,83.51
2023-04-08T05:14:13.451Z,83.38
2023-04-08T05:16:57.526Z,83.48
2023-04-08T05:19:36.330Z,83.47
2023-04-08T05:22:08.555Z,83.45
2023-04-08T05:24:39.660Z,83.36
2023-04-08T05:27:09.643Z,83.41
2023-04-08T05:29:39.871Z,83.41
2023-04-08T05:32:10.613Z,83.44
2023-04-08T05:34:41.541Z,83.50
2023-04-08T05:37:13.098Z,83.48
2023-04-08T05:39:44.767Z,83.36
2023-04-08T05:42:16.177Z,83.44
2023-04-08T05:44:46.368Z,83.37
2023-04-08T05:47:16.363Z,83.37
2023-04-08T05:49:46.576Z,83.29
2023-04-08T05:52:17.210Z,83.18
2023-04-08T05:54:49.432Z,83.38
2023-04-08T05:57:19.650Z,83.21
2023-04-08T05:59:50.877Z,83.24
2023-04-08T06:02:21.980Z,83.20
2023-04-08T06:04:53.284Z,83.26
2023-04-08T06:07:23.645Z,83.32
2023-04-08T06:09:53.749Z,83.05
2023-04-08T06:12:24.213Z,83.13
2023-04-08T06:14:58.871Z,83.20
2023-04-08T06:17:29.285Z,83.22
2023-04-08T06:20:00.645Z,83.26
2023-04-08T06:22:32.320Z,83.14
2023-04-08T06:25:03.764Z,83.08
2023-04-08T06:27:34.173Z,83.09
2023-04-08T06:30:04.196Z,83.21
2023-04-08T06:32:34.373Z,83.01
2023-04-08T06:35:04.579Z,82.79
2023-04-08T06:37:35.626Z,82.99
2023-04-08T06:40:06.831Z,82.78
2023-04-08T06:42:39.569Z,82.64
2023-04-08T06:45:22.714Z,82.29
2023-04-08T06:47:54.200Z,82.05
2023-04-08T06:50:25.274Z,82.15
2023-04-08T06:52:56.812Z,82.35
2023-04-08T06:55:28.209Z,82.20
2023-04-08T06:57:58.280Z,82.20
2023-04-08T07:00:29.524Z,82.34
2023-04-08T07:03:00.653Z,82.23
2023-04-08T07:05:30.920Z,82.17
2023-04-08T07:08:00.885Z,82.31
2023-04-08T07:10:31.126Z,82.48
2023-04-08T07:13:02.429Z,82.34
2023-04-08T07:15:33.753Z,82.30
2023-04-08T07:18:05.741Z,82.06
2023-04-08T07:20:41.698Z,82.07
2023-04-08T07:23:12.246Z,82.21
2023-04-08T07:25:42.219Z,82.15
2023-04-08T07:28:13.333Z,82.30
2023-04-08T07:30:44.309Z,82.31
2023-04-08T07:33:15.094Z,82.48
2023-04-08T07:35:46.050Z,82.54
2023-04-08T07:38:17.765Z,82.51
2023-04-08T07:40:47.964Z,82.68
2023-04-08T07:43:19.210Z,82.50
2023-04-08T07:45:49.791Z,82.51
2023-04-08T07:48:19.829Z,82.33
2023-04-08T07:51:08.303Z,82.28
2023-04-08T07:53:40.758Z,82.35
2023-04-08T07:56:20.311Z,82.31
2023-04-08T07:58:53.609Z,82.42
2023-04-08T08:01:25.205Z,82.38
2023-04-08T08:03:55.731Z,82.20
2023-04-08T08:06:27.100Z,82.04
2023-04-08T08:08:57.528Z,82.09
2023-04-08T08:11:31.529Z,81.97
2023-04-08T08:14:01.993Z,81.98
2023-04-08T08:16:33.350Z,81.79
2023-04-08T08:19:04.382Z,81.66
2023-04-08T08:21:34.683Z,81.84
2023-04-08T08:24:05.109Z,81.91
2023-04-08T08:26:42.311Z,81.90
2023-04-08T08:29:12.759Z,82.11
2023-04-08T08:31:42.882Z,82.08
2023-04-08T08:34:13.535Z,82.29
2023-04-08T08:36:43.548Z,82.44
2023-04-08T08:39:14.623Z,82.52
2023-04-08T08:41:45.987Z,82.77
2023-04-08T08:44:17.493Z,83.02
2023-04-08T08:46:50.158Z,83.31
2023-04-08T08:49:20.203Z,83.46
2023-04-08T08:51:52.725Z,83.46
2023-04-08T08:54:23.068Z,83.34
2023-04-08T08:56:53.178Z,83.27
2023-04-08T08:59:23.340Z,83.43
2023-04-08T09:01:56.250Z,83.47
2023-04-08T09:04:27.654Z,83.44
2023-04-08T09:07:47.692Z,83.27
2023-04-08T09:10:28.476Z,83.16
2023-04-08T09:12:59.929Z,83.05
2023-04-08T09:15:31.099Z,83.08
2023-04-08T09:18:02.207Z,82.95
2023-04-08T09:20:32.543Z,83.10
2023-04-08T09:23:05.057Z,83.04
2023-04-08T09:25:35.952Z,82.96
2023-04-08T09:28:06.958Z,82.90
2023-04-08T09:30:37.307Z,82.94
2023-04-08T09:33:08.796Z,83.02
2023-04-08T09:35:40.195Z,82.90
2023-04-08T09:38:10.456Z,82.73
2023-04-08T09:40:43.342Z,83.07
2023-04-08T09:43:18.541Z,82.87
2023-04-08T09:45:49.371Z,82.81
2023-04-08T09:48:26.803Z,82.88
2023-04-08T09:51:01.077Z,83.00
2023-04-08T09:53:40.698Z,83.05
2023-04-08T09:56:15.767Z,82.87
2023-04-08T09:58:59.731Z,82.87
2023-04-08T10:01:43.603Z,83.02
2023-04-08T10:04:20.427Z,82.97
2023-04-08T10:06:59.578Z,82.94
2023-04-08T10:09:32.280Z,82.75
2023-04-08T10:12:04.934Z,82.73
2023-04-08T10:14:35.334Z,82.66
2023-04-08T10:17:30.715Z,82.67
2023-04-08T10:20:01.932Z,82.28
2023-04-08T10:22:34.667Z,82.13
2023-04-08T10:25:33.112Z,82.33
2023-04-08T10:28:25.552Z,82.17
2023-04-08T10:30:59.147Z,81.97
2023-04-08T10:33:31.642Z,81.83
2023-04-08T10:36:16.527Z,81.42
2023-04-08T10:38:48.678Z,81.34
2023-04-08T10:41:26.377Z,81.26
2023-04-08T10:43:56.955Z,81.21
2023-04-08T10:46:30.074Z,81.58
2023-04-08T10:49:04.734Z,81.12
2023-04-08T10:51:37.593Z,80.95
2023-04-08T10:54:13.619Z,80.82
2023-04-08T10:56:54.959Z,80.72
2023-04-08T10:59:34.265Z,80.74
2023-04-08T11:02:05.644Z,80.25
2023-04-08T11:04:36.808Z,80.16
2023-04-08T11:07:11.133Z,80.09
2023-04-08T11:09:42.521Z,79.90
2023-04-08T11:12:13.214Z,79.60
2023-04-08T11:14:44.628Z,79.15
2023-04-08T11:17:17.770Z,79.43
2023-04-08T11:19:49.004Z,78.95
2023-04-08T11:22:20.190Z,78.97
2023-04-08T11:24:51.075Z,78.63
2023-04-08T11:27:23.908Z,78.16
2023-04-08T11:30:01.216Z,78.04
2023-04-08T11:32:33.224Z,77.99
2023-04-08T11:35:08.629Z,77.46
2023-04-08T11:37:59.652Z,76.22
2023-04-08T11:40:33.636Z,75.75
2023-04-08T11:43:13.175Z,75.31
2023-04-08T11:45:46.129Z,74.64
2023-04-08T11:48:23.280Z,73.68
2023-04-08T11:51:06.224Z,73.12
2023-04-08T11:53:38.816Z,72.48
2023-04-08T11:56:24.574Z,70.71
2023-04-08T11:58:55.578Z,69.37
2023-04-08T12:01:30.257Z,68.51
2023-04-08T12:04:04.832Z,67.70
2023-04-08T12:06:37.879Z,68.07
2023-04-08T12:09:10.761Z,67.10
2023-04-08T12:11:41.124Z,68.10
2023-04-08T12:14:14.017Z,68.58
2023-04-08T12:16:47.004Z,70.01
2023-04-08T12:19:23.850Z,68.68
2023-04-08T12:21:56.334Z,67.75
2023-04-08T12:24:28.129Z,67.34
2023-04-08T12:26:58.924Z,66.45
2023-04-08T12:29:29.335Z,66.90
2023-04-08T12:32:02.586Z,65.74
2023-04-08T12:34:34.817Z,64.89
2023-04-08T12:37:08.049Z,64.92
2023-04-08T12:39:39.187Z,65.09
2023-04-08T12:42:10.936Z,62.91
2023-04-08T12:44:42.871Z,63.42
2023-04-08T12:47:13.306Z,63.06
2023-04-08T12:49:49.523Z,63.68
2023-04-08T12:52:21.072Z,63.04
2023-04-08T12:54:53.989Z,62.08
2023-04-08T12:57:26.422Z,61.97
2023-04-08T12:59:58.090Z,61.84
2023-04-08T13:02:29.946Z,61.97
2023-04-08T13:05:01.267Z,61.93
2023-04-08T13:07:35.297Z,61.80
2023-04-08T13:10:08.771Z,62.68
2023-04-08T13:12:41.615Z,63.30
2023-04-08T13:15:14.829Z,62.62
2023-04-08T13:17:47.929Z,62.36
2023-04-08T13:20:20.856Z,62.61
2023-04-08T13:22:53.928Z,62.30
2023-04-08T13:25:25.895Z,62.46
2023-04-08T13:27:56.984Z,61.85
2023-04-08T13:30:28.987Z,61.38
2023-04-08T13:32:59.263Z,62.00
2023-04-08T13:35:30.676Z,61.23
2023-04-08T13:38:01.205Z,62.03
2023-04-08T13:40:32.605Z,60.29
2023-04-08T13:43:03.676Z,60.51
2023-04-08T13:45:35.801Z,60.42
2023-04-08T13:48:06.576Z,60.60
2023-04-08T13:50:40.419Z,60.33
2023-04-08T13:53:11.431Z,62.53
2023-04-08T13:55:44.310Z,62.57
2023-04-08T13:58:23.271Z,61.79
2023-04-08T14:00:53.835Z,61.82
2023-04-08T14:03:23.969Z,62.42
2023-04-08T14:05:56.644Z,62.37
2023-04-08T14:08:27.850Z,62.17
2023-04-08T14:10:59.831Z,63.32
2023-04-08T14:13:29.994Z,62.17
2023-04-08T14:16:04.340Z,62.56
2023-04-08T14:18:35.792Z,62.67
2023-04-08T14:21:06.817Z,63.06
2023-04-08T14:23:37.287Z,62.64
2023-04-08T14:26:08.926Z,62.78
2023-04-08T14:28:39.385Z,62.15
2023-04-08T14:31:10.164Z,62.39
2023-04-08T14:33:41.068Z,62.43
2023-04-08T14:36:13.030Z,62.32
2023-04-08T14:38:46.815Z,61.78
2023-04-08T14:41:18.732Z,63.24
2023-04-08T14:43:53.551Z,62.18
2023-04-08T14:46:27.290Z,64.95
2023-04-08T14:48:58.626Z,63.83
2023-04-08T14:51:28.517Z,63.43
2023-04-08T14:54:00.103Z,61.45
2023-04-08T14:56:30.822Z,63.38
2023-04-08T14:59:01.761Z,61.82
2023-04-08T15:01:34.901Z,61.35
2023-04-08T15:04:10.470Z,61.49
2023-04-08T15:06:44.328Z,61.96
2023-04-08T15:09:14.411Z,61.28
2023-04-08T15:11:45.654Z,61.20
2023-04-08T15:14:17.514Z,60.84
2023-04-08T15:16:49.040Z,61.50
2023-04-08T15:19:23.280Z,60.03
2023-04-08T15:21:53.476Z,61.95
2023-04-08T15:24:26.619Z,61.13
2023-04-08T15:26:58.692Z,59.73
2023-04-08T15:29:28.907Z,60.94
2023-04-08T15:31:59.989Z,61.04
2023-04-08T15:34:32.918Z,61.79
2023-04-08T15:37:05.591Z,61.21
2023-04-08T15:39:38.409Z,61.66
2023-04-08T15:42:10.504Z,60.85
2023-04-08T15:44:42.542Z,60.92
2023-04-08T15:47:13.220Z,61.95
2023-04-08T15:49:43.425Z,61.86
2023-04-08T15:52:13.704Z,62.57
2023-04-08T15:54:43.979Z,61.95
2023-04-08T15:57:16.274Z,61.89
2023-04-08T15:59:47.990Z,61.52
2023-04-08T16:02:20.028Z,61.76
2023-04-08T16:04:51.172Z,62.56
2023-04-08T16:07:23.381Z,63.05
2023-04-08T16:09:53.629Z,62.58
2023-04-08T16:12:24.394Z,63.52
2023-04-08T16:14:57.046Z,64.06
2023-04-08T16:17:28.278Z,63.55
2023-04-08T16:19:59.760Z,64.69
2023-04-08T16:22:30.753Z,64.41
2023-04-08T16:25:02.415Z,67.60
2023-04-08T16:27:33.532Z,69.71
2023-04-08T16:30:06.813Z,69.41
2023-04-08T16:32:37.530Z,68.99
2023-04-08T16:35:09.539Z,68.66
2023-04-08T16:37:39.795Z,68.78
2023-04-08T16:40:11.102Z,69.27
2023-04-08T16:42:42.000Z,68.86
2023-04-08T16:45:12.713Z,69.16
2023-04-08T16:47:44.665Z,70.34
2023-04-08T16:50:16.139Z,70.73
2023-04-08T16:52:50.925Z,71.49
2023-04-08T16:55:25.105Z,71.47
2023-04-08T16:57:57.947Z,72.38
2023-04-08T17:00:29.609Z,72.80
2023-04-08T17:03:00.645Z,73.55
2023-04-08T17:05:31.871Z,74.28
2023-04-08T17:08:06.431Z,75.64
2023-04-08T17:10:36.929Z,75.87
2023-04-08T17:13:07.073Z,75.30
2023-04-08T17:15:37.912Z,74.22
2023-04-08T17:18:08.535Z,74.64
2023-04-08T17:20:38.678Z,76.35
2023-04-08T17:23:09.749Z,75.82
2023-04-08T17:25:40.667Z,75.94
2023-04-08T17:28:11.712Z,75.73
2023-04-08T17:30:42.938Z,74.97
2023-04-08T17:33:13.321Z,75.35
2023-04-08T17:35:45.335Z,75.02
2023-04-08T17:38:15.759Z,73.84
2023-04-08T17:40:47.025Z,73.81
2023-04-08T17:43:17.294Z,74.24
2023-04-08T17:45:48.882Z,73.39
2023-04-08T17:48:20.096Z,72.94
2023-04-08T17:50:51.420Z,70.97
2023-04-08T17:53:22.840Z,70.70
2023-04-08T17:55:53.554Z,70.31
2023-04-08T17:58:24.275Z,70.19
2023-04-08T18:00:54.877Z,70.42
2023-04-08T18:03:25.124Z,71.36
2023-04-08T18:05:56.696Z,71.25
2023-04-08T18:08:27.903Z,71.49
2023-04-08T18:10:58.065Z,71.45
2023-04-08T18:13:28.091Z,71.45
2023-04-08T18:16:00.133Z,71.03
2023-04-08T18:18:30.310Z,70.90
2023-04-08T18:21:00.324Z,71.45
2023-04-08T18:23:31.267Z,70.51
2023-04-08T18:26:01.500Z,70.12
2023-04-08T18:28:31.735Z,69.73
2023-04-08T18:31:02.363Z,69.10
2023-04-08T18:33:33.393Z,69.24
2023-04-08T18:36:14.299Z,68.99
2023-04-08T18:38:46.714Z,68.32
2023-04-08T18:41:18.448Z,69.05
2023-04-08T18:43:50.043Z,68.65
2023-04-08T18:46:22.384Z,69.21
2023-04-08T18:48:53.364Z,68.96
2023-04-08T18:51:24.948Z,69.02
2023-04-08T18:53:55.214Z,69.61
2023-04-08T18:56:25.225Z,69.60
2023-04-08T18:58:57.049Z,69.27
2023-04-08T19:01:27.513Z,68.93
2023-04-08T19:03:57.738Z,69.33
2023-04-08T19:06:28.232Z,69.81
2023-04-08T19:08:59.101Z,68.77
2023-04-08T19:11:30.526Z,69.38
2023-04-08T19:14:01.383Z,70.00
2023-04-08T19:16:31.427Z,70.04
2023-04-08T19:19:01.961Z,70.54
2023-04-08T19:21:34.836Z,70.36
2023-04-08T19:24:08.944Z,70.80
2023-04-08T19:26:39.286Z,71.38
2023-04-08T19:29:11.154Z,71.49
2023-04-08T19:31:45.515Z,71.40
2023-04-08T19:34:17.564Z,70.25
2023-04-08T19:36:50.377Z,70.48
2023-04-08T19:39:21.370Z,70.50
2023-04-08T19:41:54.084Z,70.48
2023-04-08T19:44:26.120Z,70.69
2023-04-08T19:47:00.080Z,70.84
2023-04-08T19:49:34.190Z,70.58
2023-04-08T19:52:08.121Z,70.37
2023-04-08T19:54:39.794Z,70.37
2023-04-08T19:57:12.231Z,69.69
2023-04-08T19:59:42.481Z,69.61
2023-04-08T20:02:13.565Z,70.25
2023-04-08T20:04:46.657Z,70.18
2023-04-08T20:07:16.931Z,70.55
2023-04-08T20:09:47.172Z,69.99
2023-04-08T20:12:18.804Z,70.14
2023-04-08T20:14:49.995Z,70.90
2023-04-08T20:17:22.334Z,71.25
2023-04-08T20:19:54.405Z,71.41
2023-04-08T20:22:27.174Z,71.00
2023-04-08T20:25:00.256Z,70.95
2023-04-08T20:27:31.444Z,70.96
2023-04-08T20:30:03.352Z,70.34
2023-04-08T20:32:33.746Z,70.36
2023-04-08T20:35:05.626Z,70.46
2023-04-08T20:37:37.420Z,69.94
2023-04-08T20:40:11.686Z,69.78
2023-04-08T20:42:44.342Z,70.20
2023-04-08T20:45:17.175Z,69.94
2023-04-08T20:47:49.110Z,69.81
2023-04-08T20:50:19.450Z,70.14
2023-04-08T20:52:51.634Z,70.41
2023-04-08T20:55:22.156Z,70.42
2023-04-08T20:57:52.467Z,70.07
2023-04-08T21:00:23.197Z,69.85
2023-04-08T21:02:54.087Z,69.35
2023-04-08T21:05:24.323Z,69.32
2023-04-08T21:07:57.972Z,69.37
2023-04-08T21:10:28.283Z,69.65
2023-04-08T21:13:02.517Z,70.00
2023-04-08T21:15:36.182Z,69.97
2023-04-08T21:18:08.144Z,70.41
2023-04-08T21:20:41.824Z,70.40
2023-04-08T21:23:12.075Z,70.38
2023-04-08T21:25:42.336Z,70.59
2023-04-08T21:28:14.541Z,70.85
2023-04-08T21:30:45.738Z,70.81
2023-04-08T21:33:16.818Z,70.78
2023-04-08T21:35:48.259Z,71.03
2023-04-08T21:38:18.624Z,70.76
2023-04-08T21:40:48.592Z,71.15
2023-04-08T21:43:21.733Z,71.19
2023-04-08T21:45:54.880Z,71.16
2023-04-08T21:48:25.174Z,71.24
2023-04-08T21:50:55.269Z,71.10
2023-04-08T21:53:25.683Z,71.16
2023-04-08T21:55:58.419Z,71.41
2023-04-08T21:58:30.328Z,71.84
2023-04-08T22:01:03.970Z,71.91
2023-04-08T22:03:35.912Z,72.25
2023-04-08T22:08:40.974Z,72.57
2023-04-08T22:11:14.457Z,72.50
2023-04-08T22:13:47.462Z,72.72
2023-04-08T22:16:19.187Z,72.81
2023-04-08T22:18:50.603Z,72.93
2023-04-08T22:21:23.751Z,72.84
2023-04-08T22:23:55.117Z,72.99
2023-04-08T22:26:26.559Z,73.03
2023-04-08T22:28:57.908Z,73.07
2023-04-08T22:31:30.777Z,73.22
2023-04-08T22:34:02.111Z,73.16
2023-04-08T22:36:33.823Z,73.14
2023-04-08T22:39:04.248Z,72.98
2023-04-08T22:41:35.580Z,73.10
2023-04-08T22:44:05.657Z,73.10
2023-04-08T22:46:36.838Z,73.25
2023-04-08T22:49:08.676Z,72.92
2023-04-08T22:51:40.712Z,73.02
2023-04-08T22:54:11.135Z,73.03
2023-04-08T22:56:42.136Z,72.81
2023-04-08T22:59:15.318Z,72.82
2023-04-08T23:01:46.999Z,72.50
2023-04-08T23:04:18.270Z,72.33
2023-04-08T23:06:50.550Z,72.06
2023-04-08T23:09:23.382Z,71.83
2023-04-08T23:11:53.652Z,72.04
2023-04-08T23:14:25.939Z,72.16
2023-04-08T23:16:56.167Z,72.11
2023-04-08T23:19:28.793Z,72.02
2023-04-08T23:21:59.765Z,72.08
2023-04-08T23:24:29.769Z,72.14
2023-04-08T23:26:59.918Z,72.30
2023-04-08T23:29:30.458Z,72.15
2023-04-08T23:32:02.168Z,72.23
2023-04-08T23:34:32.573Z,72.32
2023-04-08T23:37:03.276Z,73.14
2023-04-08T23:39:42.339Z,73.70
2023-04-08T23:42:14.578Z,74.71
2023-04-08T23:44:45.969Z,75.71
2023-04-08T23:47:19.040Z,76.20
2023-04-08T23:49:51.933Z,76.08
2023-04-08T23:52:24.473Z,76.13
2023-04-08T23:54:54.973Z,75.84
2023-04-08T23:57:32.386Z,76.10
